X  Chiuso Dati meteorologici dell'aviazione (METAR)     LIPX Verona-Villafranca Valerio Catullo Airport
Temperatura
6°C Temperatura
4°C Punto di rugiada
87% Umidità



Vento
2 MPH
3 KM/O
1 M/S
2 KTS



Calmo
N
Condizioni attuali

Chiaro Chiaro
Pressione 1007.79 (hPa) - 29.76 (inHg)
Visibilità 6 (miglio) - 9.7 (km)
Aeroporto
Codice-Aeroporto LIPX

Posizione: Verona-Villafranca Valerio Catullo Airport
Distanza: 0 (mi)

Metar:
LIPX 251950Z VRB02KT CAVOK 06/04 Q1008

Ore: 25-02-2024 19:50 CET